Time;durP1;ratioP1;P1;durP2;ratioP2;P2;SDS_P1;SDS_P2;PMS_P1;PMS_P2;Temp;Humidity;BMP_temperature;BMP_pressure;BME280_temperature;BME280_humidity;BME280_pressure;Samples;Min_cycle;Max_cycle;Signal;HPM_P1;HPM_P2
2022/06/04 00:00:13;;;;;;;;;;;;;;;20.69;82.11;99987.72;5034954;28;898;-56
2022/06/04 00:02:41;;;;;;;;;;;;;;;20.87;81.37;99995.38;5034901;28;917;-58
2022/06/04 00:05:09;;;;;;;;;;;;;;;20.96;80.49;99998.16;5034885;28;827;-57
2022/06/04 00:07:35;;;;;;;;;;;;;;;21.11;80.04;100005.97;5034860;28;843;-57
2022/06/04 00:15:46;;;;;;;;;;;;;;;21.31;78.27;99997.78;5034910;28;613;-57
2022/06/04 00:18:13;;;;;;;;;;;;;;;21.35;77.92;99998.41;5034643;28;886;-57
2022/06/04 00:20:39;;;;;;;;;;;;;;;21.30;77.68;99996.25;5034517;28;893;-58
2022/06/04 00:23:08;;;;;;;;;;;;;;;21.23;78.11;99990.97;5034528;28;794;-57
2022/06/04 00:25:35;;;;;;;;;;;;;;;21.15;78.41;99995.34;5034511;28;803;-58
2022/06/04 00:28:01;;;;;;;;;;;;;;;21.08;78.65;99987.22;5034407;28;885;-57
2022/06/04 00:30:28;;;;;;;;;;;;;;;21.15;78.48;99992.53;5033980;28;1940;-57
2022/06/04 00:32:55;;;;;;;;;;;;;;;21.20;77.89;99989.84;5034345;28;971;-57
2022/06/04 00:35:22;;;;;;;;;;;;;;;21.19;78.04;99993.16;5034496;28;866;-57
2022/06/04 00:37:49;;;;;;;;;;;;;;;21.17;78.09;99992.84;5034248;28;929;-57
2022/06/04 00:40:25;;;;;;;;;;;;;;;21.05;78.35;99986.13;5034284;28;861;-58
2022/06/04 00:42:54;;;;;;;;;;;;;;;20.90;78.83;99982.41;5034049;28;926;-57
2022/06/04 00:45:21;;;;;;;;;;;;;;;20.84;79.21;99987.09;5034016;28;938;-58
2022/06/04 00:47:48;;;;;;;;;;;;;;;20.71;79.62;99993.63;5034138;28;881;-58
2022/06/04 00:50:16;;;;;;;;;;;;;;;20.61;80.00;99983.66;5033940;28;1957;-57
2022/06/04 00:52:44;;;;;;;;;;;;;;;20.57;80.24;99981.00;5033842;28;906;-58
2022/06/04 00:55:12;;;;;;;;;;;;;;;20.51;80.50;99982.84;5033965;28;811;-57
2022/06/04 00:58:08;;;;;;;;;;;;;;;20.44;81.04;99976.75;5033877;28;803;-58
2022/06/04 01:00:39;;;;;;;;;;;;;;;20.35;81.56;99969.09;5016962;28;1085;-57
2022/06/04 01:03:15;;;;;;;;;;;;;;;20.28;81.86;99967.38;5033847;28;791;-57
2022/06/04 01:05:48;;;;;;;;;;;;;;;20.24;82.62;99958.31;5033749;28;799;-57
2022/06/04 01:08:31;;;;;;;;;;;;;;;20.28;82.41;99963.81;5033716;28;889;-57
2022/06/04 01:11:07;;;;;;;;;;;;;;;20.21;82.86;99958.50;5033687;28;819;-58
2022/06/04 01:13:34;;;;;;;;;;;;;;;20.12;83.09;99951.63;5034296;28;839;-58
2022/06/04 01:16:00;;;;;;;;;;;;;;;20.09;83.30;99951.75;5033937;28;763;-58
2022/06/04 01:18:41;;;;;;;;;;;;;;;20.03;83.56;99948.00;5033691;28;867;-58
2022/06/04 01:21:22;;;;;;;;;;;;;;;19.97;84.02;99956.25;5015705;28;931;-58
2022/06/04 01:23:57;;;;;;;;;;;;;;;19.98;84.41;99944.56;5033600;28;823;-58
2022/06/04 01:26:35;;;;;;;;;;;;;;;19.96;84.24;99949.09;5033443;28;873;-58
2022/06/04 01:29:05;;;;;;;;;;;;;;;19.90;84.52;99953.75;5033277;28;1906;-58
2022/06/04 01:31:44;;;;;;;;;;;;;;;19.86;84.99;99950.28;5032989;28;1115;-58
2022/06/04 01:34:13;;;;;;;;;;;;;;;19.84;85.15;99949.97;5033154;28;942;-58
2022/06/04 01:36:48;;;;;;;;;;;;;;;19.81;85.28;99948.88;5033487;28;893;-58
2022/06/04 01:39:20;;;;;;;;;;;;;;;19.77;85.66;99948.25;5033290;28;834;-58
2022/06/04 01:41:53;;;;;;;;;;;;;;;19.70;85.88;99940.91;5033056;28;861;-58
2022/06/04 01:44:30;;;;;;;;;;;;;;;19.64;86.33;99936.34;5032974;28;799;-58
2022/06/04 01:46:58;;;;;;;;;;;;;;;19.66;86.91;99939.47;5032952;28;803;-57
2022/06/04 01:49:28;;;;;;;;;;;;;;;19.68;86.94;99939.78;5032955;28;1914;-58
2022/06/04 01:51:58;;;;;;;;;;;;;;;19.69;87.01;99942.09;5032853;28;873;-58
2022/06/04 01:54:30;;;;;;;;;;;;;;;19.68;87.20;99943.38;5032864;28;822;-58
2022/06/04 01:57:04;;;;;;;;;;;;;;;19.78;87.28;99945.00;5033136;28;799;-57
2022/06/04 01:59:37;;;;;;;;;;;;;;;19.83;87.12;99937.22;5032894;28;815;-57
2022/06/04 02:02:07;;;;;;;;;;;;;;;19.91;87.09;99944.09;5032722;28;830;-57
2022/06/04 02:04:38;;;;;;;;;;;;;;;19.94;86.96;99938.31;5032009;28;865;-58
2022/06/04 02:09:56;;;;;;;;;;;;;;;19.91;87.14;99941.28;5032924;28;1957;-57
2022/06/04 02:12:23;;;;;;;;;;;;;;;19.91;87.26;99932.88;5032592;28;913;-58
2022/06/04 02:14:50;;;;;;;;;;;;;;;19.93;87.30;99927.59;5032654;28;850;-58
2022/06/04 02:17:18;;;;;;;;;;;;;;;19.92;87.23;99923.97;5032676;28;811;-57
2022/06/04 02:19:45;;;;;;;;;;;;;;;19.92;87.46;99923.22;5032333;28;1025;-58
2022/06/04 02:22:12;;;;;;;;;;;;;;;19.94;87.42;99920.72;5032388;28;850;-58
2022/06/04 02:24:40;;;;;;;;;;;;;;;19.93;87.43;99921.97;5032429;28;854;-57
2022/06/04 02:27:08;;;;;;;;;;;;;;;19.97;87.49;99909.34;5032321;28;874;-57
2022/06/04 02:29:35;;;;;;;;;;;;;;;20.04;87.17;99908.28;5032282;28;1953;-58
2022/06/04 02:32:05;;;;;;;;;;;;;;;20.10;86.74;99911.22;5031985;28;1284;-58
2022/06/04 02:34:40;;;;;;;;;;;;;;;20.14;86.30;99909.84;5032081;28;870;-58
2022/06/04 02:37:13;;;;;;;;;;;;;;;20.16;85.69;99906.56;5032065;28;878;-56
2022/06/04 02:39:43;;;;;;;;;;;;;;;20.14;85.52;99904.25;5014625;28;727;-57
2022/06/04 02:42:12;;;;;;;;;;;;;;;20.13;85.61;99907.50;5014294;28;1162;-58
2022/06/04 02:44:51;;;;;;;;;;;;;;;20.10;85.28;99906.41;5032143;28;815;-57
2022/06/04 02:47:19;;;;;;;;;;;;;;;20.11;85.24;99901.56;5031813;28;941;-57
2022/06/04 02:49:53;;;;;;;;;;;;;;;20.15;84.72;99907.81;5014560;28;2009;-58
2022/06/04 02:52:22;;;;;;;;;;;;;;;20.13;84.87;99913.13;5031739;28;915;-58
2022/06/04 02:54:55;;;;;;;;;;;;;;;20.09;84.76;99910.44;5031697;28;910;-57
2022/06/04 02:57:24;;;;;;;;;;;;;;;20.14;84.51;99907.03;5031809;28;815;-58
2022/06/04 02:59:50;;;;;;;;;;;;;;;20.13;84.47;99904.69;5031675;28;819;-58
2022/06/04 03:02:19;;;;;;;;;;;;;;;20.08;84.61;99905.28;5031673;28;910;-58
2022/06/04 03:04:48;;;;;;;;;;;;;;;20.02;84.90;99910.75;5031664;28;819;-58
2022/06/04 03:07:16;;;;;;;;;;;;;;;20.06;84.75;99917.00;5031647;28;917;-58
2022/06/04 03:09:44;;;;;;;;;;;;;;;20.03;84.78;99931.19;5031433;28;1981;-58
2022/06/04 03:12:14;;;;;;;;;;;;;;;20.02;84.83;99932.44;5031404;28;859;-58
2022/06/04 03:14:41;;;;;;;;;;;;;;;19.93;85.16;99927.59;5031741;28;858;-56
2022/06/04 03:17:09;;;;;;;;;;;;;;;19.95;85.50;99939.91;5031026;28;863;-58
2022/06/04 03:19:36;;;;;;;;;;;;;;;19.98;85.31;99946.59;5031472;28;905;-58
2022/06/04 03:22:03;;;;;;;;;;;;;;;20.07;85.25;99940.22;5031537;28;873;-58
2022/06/04 03:24:29;;;;;;;;;;;;;;;20.15;84.84;99945.06;5031528;28;854;-58
2022/06/04 03:26:56;;;;;;;;;;;;;;;20.21;84.90;99941.66;5031622;28;853;-58
2022/06/04 03:29:23;;;;;;;;;;;;;;;20.24;84.80;99946.34;5031444;28;1985;-58
2022/06/04 03:31:49;;;;;;;;;;;;;;;20.33;84.25;99952.75;5031275;28;1413;-58
2022/06/04 03:34:16;;;;;;;;;;;;;;;20.45;84.15;99945.41;5031656;28;878;-58
2022/06/04 03:36:43;;;;;;;;;;;;;;;20.54;83.70;99944.63;5031570;28;865;-57
2022/06/04 03:39:10;;;;;;;;;;;;;;;20.62;83.19;99942.34;5031603;28;1045;-58
2022/06/04 03:41:36;;;;;;;;;;;;;;;20.76;82.49;99942.47;5031906;28;779;-58
2022/06/04 03:44:04;;;;;;;;;;;;;;;20.89;82.25;99950.72;5031642;28;834;-58
2022/06/04 03:46:30;;;;;;;;;;;;;;;21.00;82.14;99950.25;5032130;28;775;-57
2022/06/04 03:48:57;;;;;;;;;;;;;;;21.04;81.92;99962.09;5031287;28;1979;-58
2022/06/04 03:51:24;;;;;;;;;;;;;;;21.09;81.84;99964.28;5032153;28;1084;-58
2022/06/04 03:53:50;;;;;;;;;;;;;;;21.16;81.94;99965.97;5031511;28;788;-58
2022/06/04 03:56:17;;;;;;;;;;;;;;;21.22;81.50;99964.09;5031167;28;811;-58
2022/06/04 03:58:44;;;;;;;;;;;;;;;21.28;81.60;99965.00;5031179;28;962;-58
2022/06/04 04:01:25;;;;;;;;;;;;;;;21.34;81.67;99970.78;5031120;28;819;-58
2022/06/04 04:03:52;;;;;;;;;;;;;;;21.38;81.66;99969.34;5031044;28;847;-57
2022/06/04 04:06:20;;;;;;;;;;;;;;;21.43;81.58;99989.69;5030935;28;866;-58
2022/06/04 04:08:47;;;;;;;;;;;;;;;21.54;80.99;99987.91;4997086;28;1951;-57
2022/06/04 04:11:14;;;;;;;;;;;;;;;21.64;80.96;99994.28;5013345;28;894;-58
2022/06/04 04:13:41;;;;;;;;;;;;;;;21.79;80.60;99988.75;5030847;28;1960;-57
2022/06/04 04:16:09;;;;;;;;;;;;;;;21.90;80.91;99985.44;5030974;28;815;-58
2022/06/04 04:18:36;;;;;;;;;;;;;;;22.00;80.25;99995.38;5030980;28;842;-58
2022/06/04 04:21:06;;;;;;;;;;;;;;;22.08;79.72;99996.56;5030956;28;807;-57
2022/06/04 04:23:33;;;;;;;;;;;;;;;22.21;79.37;100004.78;5013185;28;1106;-58
2022/06/04 04:26:00;;;;;;;;;;;;;;;22.37;78.47;100003.63;5030938;28;819;-58
2022/06/04 04:28:27;;;;;;;;;;;;;;;22.49;77.26;99999.81;5033444;28;818;-58
2022/06/04 04:30:54;;;;;;;;;;;;;;;22.65;76.70;100003.44;5034205;28;1890;-58
2022/06/04 04:33:21;;;;;;;;;;;;;;;22.82;76.33;100008.13;5034316;28;811;-58
2022/06/04 04:35:48;;;;;;;;;;;;;;;23.06;75.82;100009.38;5034240;28;946;-58
2022/06/04 04:38:18;;;;;;;;;;;;;;;23.12;75.32;100004.63;5034265;28;839;-58
2022/06/04 04:40:46;;;;;;;;;;;;;;;23.16;74.80;99997.53;5034683;28;815;-56
2022/06/04 04:43:12;;;;;;;;;;;;;;;23.15;74.28;100003.63;5034548;28;858;-58
2022/06/04 04:45:38;;;;;;;;;;;;;;;23.18;74.64;100011.16;5034843;28;783;-58
2022/06/04 04:48:05;;;;;;;;;;;;;;;23.24;73.95;100003.56;5034140;28;842;-57
2022/06/04 04:50:36;;;;;;;;;;;;;;;23.32;73.67;99998.31;5033917;28;1910;-58
2022/06/04 04:53:04;;;;;;;;;;;;;;;23.39;72.85;99993.06;5034435;28;886;-58
2022/06/04 04:55:32;;;;;;;;;;;;;;;23.40;72.57;99993.84;5033871;28;882;-58
2022/06/04 04:57:59;;;;;;;;;;;;;;;23.44;71.66;99988.78;5033867;28;958;-57
2022/06/04 05:00:26;;;;;;;;;;;;;;;23.43;71.33;99996.47;5033774;28;946;-57
2022/06/04 05:02:52;;;;;;;;;;;;;;;23.45;71.75;99990.34;5033849;28;870;-58
2022/06/04 05:05:19;;;;;;;;;;;;;;;23.47;71.56;99987.81;5033789;28;851;-57
2022/06/04 05:07:46;;;;;;;;;;;;;;;23.53;71.19;99987.88;5033832;28;926;-57
2022/06/04 05:10:13;;;;;;;;;;;;;;;23.59;71.45;99985.94;5015795;28;1878;-57
2022/06/04 05:12:38;;;;;;;;;;;;;;;23.72;70.87;99985.63;5033549;28;953;-57
2022/06/04 05:15:05;;;;;;;;;;;;;;;23.89;70.95;99991.56;5016123;28;921;-58
2022/06/04 05:17:32;;;;;;;;;;;;;;;24.08;70.22;99995.69;5033894;28;867;-57
2022/06/04 05:19:59;;;;;;;;;;;;;;;24.36;69.23;99998.88;5033965;28;799;-58
2022/06/04 05:22:26;;;;;;;;;;;;;;;24.61;68.23;100007.97;5033624;28;922;-57
2022/06/04 05:24:53;;;;;;;;;;;;;;;24.75;67.56;99998.63;5033593;28;1149;-58
2022/06/04 05:27:20;;;;;;;;;;;;;;;24.96;66.92;99999.34;5033587;28;891;-58
2022/06/04 05:29:46;;;;;;;;;;;;;;;25.19;65.19;100011.66;5033407;28;1890;-56
2022/06/04 05:32:13;;;;;;;;;;;;;;;25.39;64.21;100004.41;5033520;28;838;-58
2022/06/04 05:34:40;;;;;;;;;;;;;;;25.62;62.20;100003.31;5033565;28;874;-58
2022/06/04 05:40:09;;;;;;;;;;;;;;;26.37;60.73;99994.03;5032175;28;668;-57
2022/06/04 05:42:36;;;;;;;;;;;;;;;26.67;60.43;99998.06;5033070;28;847;-56
2022/06/04 05:45:03;;;;;;;;;;;;;;;26.87;58.82;99999.16;5033231;28;874;-58
2022/06/04 05:47:29;;;;;;;;;;;;;;;27.23;56.31;99996.69;5032933;28;905;-56
2022/06/04 05:49:56;;;;;;;;;;;;;;;27.76;54.83;99991.25;5032862;28;1978;-58
2022/06/04 05:52:23;;;;;;;;;;;;;;;28.22;54.00;99987.03;5032945;28;874;-58
2022/06/04 05:54:50;;;;;;;;;;;;;;;28.77;51.69;99993.81;5032832;28;834;-58
2022/06/04 05:57:17;;;;;;;;;;;;;;;29.74;50.04;99989.00;5015052;28;1177;-58
2022/06/04 05:59:44;;;;;;;;;;;;;;;30.45;47.81;99995.78;5032661;28;870;-58
2022/06/04 06:02:11;;;;;;;;;;;;;;;30.74;46.49;100009.13;5032645;28;898;-58
2022/06/04 06:04:37;;;;;;;;;;;;;;;30.68;45.56;100004.81;5032563;28;865;-57
2022/06/04 06:07:04;;;;;;;;;;;;;;;30.66;46.15;100005.38;5032589;28;882;-58
2022/06/04 06:09:31;;;;;;;;;;;;;;;30.36;46.36;100007.56;5032475;28;1889;-57
2022/06/04 06:11:57;;;;;;;;;;;;;;;30.38;46.86;100005.72;5032552;28;806;-58
2022/06/04 06:14:25;;;;;;;;;;;;;;;30.57;46.57;99991.47;5032488;28;867;-57
2022/06/04 06:16:52;;;;;;;;;;;;;;;30.77;45.97;100000.81;5032436;28;834;-57
2022/06/04 06:19:20;;;;;;;;;;;;;;;30.48;46.05;100001.19;5032453;28;877;-57
2022/06/04 06:21:46;;;;;;;;;;;;;;;30.67;46.39;100004.06;5032353;28;811;-57
2022/06/04 06:24:16;;;;;;;;;;;;;;;31.22;44.56;99997.34;5032229;28;865;-58
2022/06/04 06:26:52;;;;;;;;;;;;;;;30.90;44.41;99998.09;5032197;28;886;-57
2022/06/04 06:29:18;;;;;;;;;;;;;;;30.76;45.42;100007.84;5032202;28;1882;-58
2022/06/04 06:31:45;;;;;;;;;;;;;;;31.47;44.92;100013.06;5031896;28;1378;-57
2022/06/04 06:34:12;;;;;;;;;;;;;;;31.97;43.63;100027.03;5032045;28;879;-58
2022/06/04 06:36:39;;;;;;;;;;;;;;;32.34;42.78;100018.25;5014365;28;906;-57
2022/06/04 06:39:06;;;;;;;;;;;;;;;32.88;42.89;100021.84;5032018;28;862;-57
2022/06/04 06:41:33;;;;;;;;;;;;;;;33.41;41.10;100005.81;5031990;28;910;-57
2022/06/04 06:44:00;;;;;;;;;;;;;;;34.27;40.66;100034.59;5031875;28;942;-58
2022/06/04 06:46:31;;;;;;;;;;;;;;;35.11;38.78;100031.38;5031964;28;799;-58
2022/06/04 06:49:04;;;;;;;;;;;;;;;35.72;38.71;100030.75;5031848;28;1910;-58
2022/06/04 06:51:33;;;;;;;;;;;;;;;36.32;36.75;100023.41;5031518;28;911;-57
2022/06/04 06:54:00;;;;;;;;;;;;;;;36.14;35.72;100024.59;5031786;28;846;-57
2022/06/04 06:56:31;;;;;;;;;;;;;;;35.37;37.36;100028.19;5014051;28;1766;-57
2022/06/04 06:58:59;;;;;;;;;;;;;;;34.98;37.56;100026.56;5031637;28;927;-57
2022/06/04 07:01:27;;;;;;;;;;;;;;;35.20;37.42;100030.09;5031650;28;910;-57
2022/06/04 07:03:55;;;;;;;;;;;;;;;35.97;36.65;100031.69;5031886;28;846;-58
2022/06/04 07:06:33;;;;;;;;;;;;;;;36.47;35.85;100027.59;5032705;28;810;-57
2022/06/04 07:09:00;;;;;;;;;;;;;;;35.96;35.18;100026.53;5031411;28;1945;-57
2022/06/04 07:11:27;;;;;;;;;;;;;;;35.66;36.63;100018.69;5031933;28;870;-57
2022/06/04 07:13:54;;;;;;;;;;;;;;;36.34;36.16;100019.97;5031577;28;869;-58
2022/06/04 07:16:21;;;;;;;;;;;;;;;35.30;36.60;100025.34;5031341;28;950;-47
2022/06/04 07:18:49;;;;;;;;;;;;;;;35.31;36.54;100015.34;5031429;28;938;-57
2022/06/04 07:21:17;;;;;;;;;;;;;;;35.63;36.93;100011.19;5031340;28;1064;-58
2022/06/04 07:23:45;;;;;;;;;;;;;;;36.14;35.44;100007.34;5031458;28;869;-57
2022/06/04 07:26:12;;;;;;;;;;;;;;;36.48;35.15;100009.75;5031452;28;835;-58
2022/06/04 07:28:40;;;;;;;;;;;;;;;35.92;35.49;100001.03;5031283;28;1957;-58
2022/06/04 07:31:08;;;;;;;;;;;;;;;35.34;35.75;100005.63;5031281;28;1189;-59
2022/06/04 07:33:36;;;;;;;;;;;;;;;35.46;35.97;100006.00;5031347;28;1237;-58
2022/06/04 07:36:02;;;;;;;;;;;;;;;35.59;36.76;100000.06;5031612;28;795;-68
2022/06/04 07:38:30;;;;;;;;;;;;;;;36.28;36.37;100005.03;5031241;28;831;-66
2022/06/04 07:40:57;;;;;;;;;;;;;;;36.36;34.99;100002.88;5031239;28;823;-66
2022/06/04 07:43:25;;;;;;;;;;;;;;;36.53;34.36;100000.16;5031387;28;799;-65
2022/06/04 07:45:52;;;;;;;;;;;;;;;36.81;34.26;100009.06;5031204;28;815;-68
2022/06/04 07:48:19;;;;;;;;;;;;;;;36.74;34.64;100011.41;5031505;28;854;-71
2022/06/04 07:50:46;;;;;;;;;;;;;;;36.93;34.75;100001.50;5013552;28;1969;-69
2022/06/04 07:53:13;;;;;;;;;;;;;;;37.38;33.80;99999.69;5031222;28;1028;-71
2022/06/04 07:55:42;;;;;;;;;;;;;;;36.63;34.78;100008.94;5031162;28;890;-69
2022/06/04 07:58:09;;;;;;;;;;;;;;;36.70;35.32;100001.63;5013871;28;1178;-72
2022/06/04 08:00:38;;;;;;;;;;;;;;;36.24;34.33;99996.03;5031975;28;748;-67
2022/06/04 08:03:04;;;;;;;;;;;;;;;35.42;34.94;99999.84;5033347;28;909;-70
2022/06/04 08:05:31;;;;;;;;;;;;;;;35.19;37.03;99989.13;5035405;28;838;-70
2022/06/04 08:07:58;;;;;;;;;;;;;;;35.87;37.08;99998.34;5035239;28;870;-67
2022/06/04 08:10:23;;;;;;;;;;;;;;;36.22;35.74;99992.97;5035183;28;1886;-66
2022/06/04 08:13:00;;;;;;;;;;;;;;;36.41;34.61;99998.28;5035055;28;902;-67
2022/06/04 08:15:26;;;;;;;;;;;;;;;36.18;33.96;99993.34;5034960;28;908;-68
2022/06/04 08:17:53;;;;;;;;;;;;;;;36.10;35.51;99986.81;5034855;28;819;-67
2022/06/04 08:20:20;;;;;;;;;;;;;;;36.94;35.05;99982.91;5034758;28;827;-66
2022/06/04 08:22:47;;;;;;;;;;;;;;;36.76;33.87;100000.03;5034761;28;955;-67
2022/06/04 08:25:14;;;;;;;;;;;;;;;36.27;33.51;99991.97;5034693;28;874;-65
2022/06/04 08:27:39;;;;;;;;;;;;;;;36.21;34.18;99995.06;5034693;28;882;-62
2022/06/04 08:30:05;;;;;;;;;;;;;;;36.20;33.72;99987.78;5034368;28;1961;-64
2022/06/04 08:32:32;;;;;;;;;;;;;;;36.07;34.99;99991.59;5034454;28;1039;-46
2022/06/04 08:34:59;;;;;;;;;;;;;;;36.29;33.63;99995.03;5033363;28;839;-56
2022/06/04 08:37:25;;;;;;;;;;;;;;;36.15;33.48;100003.13;5034157;28;875;-55
2022/06/04 08:39:51;;;;;;;;;;;;;;;35.96;34.13;100003.53;5034292;28;848;-55
2022/06/04 08:42:22;;;;;;;;;;;;;;;35.43;33.81;100004.28;5033989;28;860;-46
2022/06/04 08:44:53;;;;;;;;;;;;;;;34.51;36.25;100001.88;5033230;28;851;-47
2022/06/04 08:47:37;;;;;;;;;;;;;;;32.48;39.79;100007.59;5034203;28;823;-53
2022/06/04 08:50:25;;;;;;;;;;;;;;;32.65;38.95;99997.91;5034022;28;1969;-55
2022/06/04 08:52:54;;;;;;;;;;;;;;;34.11;38.30;99999.31;5034042;28;830;-56
2022/06/04 08:58:09;;;;;;;;;;;;;;;35.59;36.32;99985.69;5034057;28;617;-56
2022/06/04 09:00:38;;;;;;;;;;;;;;;35.50;36.03;99998.53;5033872;28;1153;-57
2022/06/04 09:03:06;;;;;;;;;;;;;;;34.97;36.63;99984.81;5033894;28;822;-54
2022/06/04 09:05:36;;;;;;;;;;;;;;;34.73;37.67;99989.72;5033788;28;961;-55
2022/06/04 09:08:05;;;;;;;;;;;;;;;34.44;38.23;99993.97;5015923;28;849;-55
2022/06/04 09:10:53;;;;;;;;;;;;;;;34.33;37.65;99992.19;5033665;28;1953;-54
2022/06/04 09:13:31;;;;;;;;;;;;;;;34.51;36.86;99999.00;5033613;28;909;-54
2022/06/04 09:16:07;;;;;;;;;;;;;;;34.48;37.93;100000.13;5033847;28;934;-54
2022/06/04 09:18:34;;;;;;;;;;;;;;;34.19;38.92;100005.13;5033439;28;955;-48
2022/06/04 09:21:02;;;;;;;;;;;;;;;33.80;39.18;99998.31;5033891;28;791;-71
2022/06/04 09:23:31;;;;;;;;;;;;;;;33.53;39.57;99993.50;5033442;28;874;-73
2022/06/04 09:26:15;;;;;;;;;;;;;;;33.46;38.85;99987.72;5015688;28;1319;-64
2022/06/04 09:29:08;;;;;;;;;;;;;;;33.45;39.82;99983.31;5033295;28;1890;-63
2022/06/04 09:31:41;;;;;;;;;;;;;;;33.23;40.72;99987.50;5029729;28;1609;-65
2022/06/04 09:34:23;;;;;;;;;;;;;;;33.38;40.64;99981.16;5033267;28;866;-65
2022/06/04 09:36:49;;;;;;;;;;;;;;;33.47;41.07;99990.00;5033114;28;815;-63
2022/06/04 09:39:22;;;;;;;;;;;;;;;33.35;41.52;99983.03;5033204;28;826;-65
2022/06/04 09:41:51;;;;;;;;;;;;;;;32.82;42.45;99991.78;5033156;28;851;-65
2022/06/04 09:44:18;;;;;;;;;;;;;;;31.94;42.64;99989.66;5033166;28;830;-66
2022/06/04 09:46:47;;;;;;;;;;;;;;;31.64;44.90;99983.44;5033018;28;799;-65
2022/06/04 09:49:39;;;;;;;;;;;;;;;31.41;44.24;99980.94;5033075;28;1911;-63
2022/06/04 09:52:30;;;;;;;;;;;;;;;31.51;43.57;99972.75;4985344;28;1265;-65
2022/06/04 09:54:58;;;;;;;;;;;;;;;31.82;44.47;99971.16;5032243;28;1542;-64
2022/06/04 09:57:35;;;;;;;;;;;;;;;31.87;44.58;99973.13;5032772;28;811;-66
2022/06/04 10:00:05;;;;;;;;;;;;;;;31.25;45.31;99974.19;5032823;28;874;-65
2022/06/04 10:31:02;;;;;;;;;;;;;;;31.53;46.15;99930.91;5024027;28;1870;-64
2022/06/04 10:34:04;;;;;;;;;;;;;;;31.77;46.18;99923.44;5032483;28;893;-65
2022/06/04 10:36:45;;;;;;;;;;;;;;;32.24;45.34;99925.69;4935959;29;1163;-64
2022/06/04 10:39:11;;;;;;;;;;;;;;;32.20;45.28;99924.44;5024438;28;966;-64
2022/06/04 10:41:56;;;;;;;;;;;;;;;32.00;45.59;99923.81;5032086;28;794;-64
2022/06/04 10:44:34;;;;;;;;;;;;;;;32.33;45.31;99924.44;5032038;28;850;-64
2022/06/04 10:47:16;;;;;;;;;;;;;;;32.90;44.35;99923.97;5032022;28;798;-64
2022/06/04 10:49:50;;;;;;;;;;;;;;;33.11;43.19;99924.78;5031846;28;1906;-65
2022/06/04 10:52:40;;;;;;;;;;;;;;;32.64;43.31;99919.13;5032165;28;795;-64
2022/06/04 10:55:06;;;;;;;;;;;;;;;31.14;45.29;99932.31;5031903;28;807;-65
2022/06/04 10:57:46;;;;;;;;;;;;;;;30.84;46.67;99921.09;5032100;28;869;-65
2022/06/04 11:00:20;;;;;;;;;;;;;;;31.97;45.40;99916.31;5031806;28;834;-65
2022/06/04 11:02:56;;;;;;;;;;;;;;;32.93;43.34;99905.69;5031723;28;1023;-65
2022/06/04 11:05:24;;;;;;;;;;;;;;;33.51;42.29;99906.59;5013905;28;1295;-65
2022/06/04 11:07:53;;;;;;;;;;;;;;;33.64;41.12;99906.50;5031593;28;886;-64
2022/06/04 11:10:25;;;;;;;;;;;;;;;34.05;40.61;99901.97;5031593;28;1886;-64
2022/06/04 11:12:59;;;;;;;;;;;;;;;35.14;40.03;99901.81;5032079;28;857;-64
2022/06/04 11:15:31;;;;;;;;;;;;;;;35.80;39.37;99907.13;5031864;28;826;-63
2022/06/04 11:18:16;;;;;;;;;;;;;;;35.36;38.70;99897.38;5031582;28;803;-64
2022/06/04 11:20:52;;;;;;;;;;;;;;;34.85;39.70;99904.03;5031515;28;885;-64
2022/06/04 11:23:26;;;;;;;;;;;;;;;34.19;40.03;99896.91;5031557;28;854;-64
2022/06/04 11:25:56;;;;;;;;;;;;;;;33.04;41.15;99893.97;5031503;28;900;-63
2022/06/04 11:28:26;;;;;;;;;;;;;;;33.27;41.35;99894.19;5031570;28;1033;-64
2022/06/04 11:31:05;;;;;;;;;;;;;;;34.39;39.96;99885.91;5030608;28;1953;-65
2022/06/04 11:33:47;;;;;;;;;;;;;;;35.14;38.63;99893.19;5030574;28;991;-64
2022/06/04 11:36:21;;;;;;;;;;;;;;;33.68;40.48;99888.97;5030582;28;854;-65
2022/06/04 11:39:14;;;;;;;;;;;;;;;32.24;42.05;99897.09;5033594;28;853;-65
2022/06/04 11:41:54;;;;;;;;;;;;;;;31.21;42.96;99887.31;5003908;28;1324;-65
2022/06/04 11:44:34;;;;;;;;;;;;;;;31.07;44.36;99890.16;5034569;28;751;-65
2022/06/04 11:47:21;;;;;;;;;;;;;;;31.32;45.11;99885.06;5033931;28;799;-65
2022/06/04 11:49:54;;;;;;;;;;;;;;;33.31;41.49;99882.38;5033743;28;1918;-65
2022/06/04 11:52:27;;;;;;;;;;;;;;;35.25;38.51;99876.88;5033914;28;859;-66
2022/06/04 11:55:13;;;;;;;;;;;;;;;36.27;35.54;99854.63;5033798;28;826;-65
2022/06/04 11:57:49;;;;;;;;;;;;;;;36.44;35.50;99859.72;5033984;28;823;-66
2022/06/04 12:00:34;;;;;;;;;;;;;;;37.15;34.93;99858.69;5033774;28;939;-65
2022/06/04 12:03:04;;;;;;;;;;;;;;;37.86;33.39;99860.34;5033614;28;830;-65
2022/06/04 12:05:33;;;;;;;;;;;;;;;38.40;31.83;99854.66;5033677;28;893;-64
2022/06/04 12:08:04;;;;;;;;;;;;;;;38.48;31.58;99855.31;5033604;28;850;-64
2022/06/04 12:10:49;;;;;;;;;;;;;;;38.32;31.57;99857.63;5015772;28;1902;-64
2022/06/04 12:13:18;;;;;;;;;;;;;;;38.58;31.47;99855.41;5033576;28;866;-65
2022/06/04 12:15:48;;;;;;;;;;;;;;;38.49;31.80;99853.19;5033838;28;861;-64
2022/06/04 12:18:20;;;;;;;;;;;;;;;38.23;31.97;99857.59;5033434;28;865;-64
2022/06/04 12:33:16;;;;;;;;;;;;;;;36.85;33.48;99848.94;4966062;28;1937553;-64
2022/06/04 12:35:52;;;;;;;;;;;;;;;35.04;35.85;99854.09;5034394;28;873;-64
2022/06/04 12:38:21;;;;;;;;;;;;;;;33.49;38.14;99844.13;5034457;28;818;-64
2022/06/04 12:40:48;;;;;;;;;;;;;;;32.85;40.23;99839.78;5034521;28;811;-64
2022/06/04 12:43:15;;;;;;;;;;;;;;;32.61;42.07;99843.75;5034339;28;834;-65
2022/06/04 12:45:45;;;;;;;;;;;;;;;32.19;44.41;99837.91;5016425;28;1184;-64
2022/06/04 12:48:24;;;;;;;;;;;;;;;33.90;43.01;99839.59;5033800;28;1069;-66
2022/06/04 12:50:57;;;;;;;;;;;;;;;35.38;40.81;99845.09;5034370;28;1971;-62
2022/06/04 12:53:25;;;;;;;;;;;;;;;34.13;43.00;99848.31;5034130;28;791;-65
2022/06/04 12:55:55;;;;;;;;;;;;;;;33.23;44.70;99838.59;5034081;28;850;-65
2022/06/04 12:58:28;;;;;;;;;;;;;;;32.82;45.46;99835.19;5016216;28;1323;-62
2022/06/04 13:01:03;;;;;;;;;;;;;;;32.34;46.38;99834.47;5034250;28;838;-68
2022/06/04 13:03:39;;;;;;;;;;;;;;;31.40;48.19;99844.41;5033896;28;874;-65
2022/06/04 13:06:15;;;;;;;;;;;;;;;30.82;49.50;99845.91;5033887;28;853;-65
2022/06/04 13:08:50;;;;;;;;;;;;;;;30.69;49.85;99850.25;5034097;28;806;-65
2022/06/04 13:11:31;;;;;;;;;;;;;;;30.41;51.18;99849.94;5033841;28;822;-64
2022/06/04 13:14:08;;;;;;;;;;;;;;;30.11;52.40;99843.03;5033949;28;882;-66
2022/06/04 13:16:45;;;;;;;;;;;;;;;29.93;52.80;99836.00;5033654;28;807;-66
2022/06/04 13:19:27;;;;;;;;;;;;;;;29.89;53.58;99835.56;5033895;28;815;-66
2022/06/04 13:21:53;;;;;;;;;;;;;;;31.89;50.07;99833.34;5033510;28;847;-66
2022/06/04 13:24:22;;;;;;;;;;;;;;;34.58;45.31;99834.69;5033500;28;838;-67
2022/06/04 13:26:57;;;;;;;;;;;;;;;36.31;40.62;99825.47;5033423;28;889;-65
2022/06/04 13:29:26;;;;;;;;;;;;;;;37.10;39.24;99823.03;5033652;28;1953;-66
2022/06/04 13:31:55;;;;;;;;;;;;;;;37.50;38.44;99822.06;5033178;28;1261;-66
2022/06/04 13:34:26;;;;;;;;;;;;;;;37.79;37.87;99825.22;5033316;28;838;-66
2022/06/04 13:37:18;;;;;;;;;;;;;;;37.75;37.01;99815.47;5033338;28;878;-64
2022/06/04 13:39:50;;;;;;;;;;;;;;;37.36;36.85;99818.75;5023405;28;1115;-63
2022/06/04 13:42:20;;;;;;;;;;;;;;;36.66;38.40;99812.03;5033317;28;859;-65
2022/06/04 13:44:54;;;;;;;;;;;;;;;36.19;39.80;99807.91;5033198;28;794;-66
2022/06/04 13:47:24;;;;;;;;;;;;;;;36.65;39.52;99806.88;5033015;28;850;-65
2022/06/04 13:50:07;;;;;;;;;;;;;;;37.18;39.09;99803.53;5032981;28;1910;-63
2022/06/04 13:53:01;;;;;;;;;;;;;;;36.86;38.35;99797.88;5014980;28;1324;-66
2022/06/04 13:55:30;;;;;;;;;;;;;;;36.49;38.72;99797.53;5002651;28;1195;-66
2022/06/04 13:58:03;;;;;;;;;;;;;;;36.12;39.59;99792.16;5032921;28;874;-65
2022/06/04 14:00:31;;;;;;;;;;;;;;;36.10;39.97;99791.22;5032188;28;897;-65
2022/06/04 14:03:03;;;;;;;;;;;;;;;35.49;41.37;99792.22;5032859;28;853;-65
2022/06/04 14:05:51;;;;;;;;;;;;;;;35.41;41.59;99789.34;5032730;28;870;-64
2022/06/04 14:08:19;;;;;;;;;;;;;;;34.75;43.50;99791.13;5032661;28;869;-66
2022/06/04 14:11:17;;;;;;;;;;;;;;;34.16;43.96;99786.19;5032566;28;1965;-65
2022/06/04 14:13:55;;;;;;;;;;;;;;;33.99;44.34;99783.06;4989176;28;1191;-66
2022/06/04 14:16:40;;;;;;;;;;;;;;;34.22;43.60;99778.19;5032876;28;822;-66